createdAt,value
2018-08-10T00:00:06.674Z,24.7
2018-08-10T00:00:56.194Z,24.6
2018-08-10T00:01:46.803Z,24.6
2018-08-10T00:02:36.283Z,24.6
2018-08-10T00:03:26.633Z,24.6
2018-08-10T00:04:16.948Z,24.6
2018-08-10T00:05:06.834Z,24.6
2018-08-10T00:05:56.876Z,24.7
2018-08-10T00:06:47.218Z,24.6
2018-08-10T00:07:37.048Z,24.6
2018-08-10T00:08:25.981Z,24.7
2018-08-10T00:09:17.436Z,24.6
2018-08-10T00:10:07.175Z,24.6
2018-08-10T00:10:56.941Z,24.6
2018-08-10T00:11:46.459Z,24.6
2018-08-10T00:12:37.346Z,24.6
2018-08-10T00:13:26.848Z,24.7
2018-08-10T00:14:17.773Z,24.6
2018-08-10T00:15:07.624Z,24.6
2018-08-10T00:15:57.255Z,24.6
2018-08-10T00:16:47.675Z,24.6
2018-08-10T00:17:37.738Z,24.7
2018-08-10T00:18:27.258Z,24.6
2018-08-10T00:37:27.579Z,24.7
2018-08-10T00:38:17.364Z,24.6
2018-08-10T00:39:07.692Z,24.7
2018-08-10T00:39:57.756Z,24.7
2018-08-10T00:40:47.541Z,24.6
2018-08-10T00:41:37.297Z,24.7
2018-08-10T00:42:28.306Z,24.7
2018-08-10T00:43:18.052Z,24.6
2018-08-10T00:44:08.327Z,24.7
2018-08-10T00:44:58.263Z,24.7
2018-08-10T00:45:48.199Z,24.6
2018-08-10T00:46:38.516Z,24.6
2018-08-10T00:47:27.804Z,24.7
2018-08-10T00:48:17.917Z,24.6
2018-08-10T00:49:07.684Z,24.7
2018-08-10T00:49:58.408Z,24.7
2018-08-10T00:50:47.530Z,24.7
2018-08-10T00:51:38.664Z,24.7
2018-08-10T00:52:28.703Z,24.7
2018-08-10T00:53:18.537Z,24.7
2018-08-10T00:54:08.368Z,24.7
2018-08-10T00:54:58.722Z,24.7
2018-08-10T00:55:49.036Z,24.7
2018-08-10T00:56:38.509Z,24.7
2018-08-10T00:57:28.629Z,24.7
2018-08-10T00:58:19.404Z,24.7
2018-08-10T00:59:08.754Z,24.6
2018-08-10T00:59:59.348Z,24.7
2018-08-10T01:00:48.030Z,24.7
2018-08-10T01:01:38.930Z,24.7
2018-08-10T01:02:28.789Z,24.7
2018-08-10T01:03:19.630Z,24.7
2018-08-10T01:04:08.645Z,24.7
2018-08-10T01:04:59.291Z,24.6
2018-08-10T01:05:49.026Z,24.7
2018-08-10T01:06:39.060Z,24.7
2018-08-10T01:07:28.785Z,24.6
2018-08-10T01:08:18.696Z,24.7
2018-08-10T01:09:09.463Z,24.7
2018-08-10T01:09:59.870Z,24.7
2018-08-10T01:10:49.875Z,24.7
2018-08-10T01:11:39.663Z,24.7
2018-08-10T01:12:29.962Z,24.7
2018-08-10T01:13:20.238Z,24.6
2018-08-10T01:14:10.667Z,24.7
2018-08-10T01:15:00.204Z,24.7
2018-08-10T01:15:50.303Z,24.7
2018-08-10T01:16:40.774Z,24.7
2018-08-10T01:17:30.605Z,24.7
2018-08-10T01:18:20.463Z,24.7
2018-08-10T01:19:12.384Z,24.7
2018-08-10T01:20:00.622Z,24.7
2018-08-10T01:20:51.123Z,24.7
2018-08-10T01:21:40.679Z,24.7
2018-08-10T01:22:31.064Z,24.7
2018-08-10T01:23:21.136Z,24.7
2018-08-10T01:24:11.254Z,24.7
2018-08-10T01:25:01.026Z,24.7
2018-08-10T01:25:51.454Z,24.7
2018-08-10T01:26:41.115Z,24.7
2018-08-10T01:27:31.639Z,24.6
2018-08-10T01:28:21.309Z,24.7
2018-08-10T01:29:11.468Z,24.7
2018-08-10T01:30:02.001Z,24.7
2018-08-10T01:30:50.848Z,24.7
2018-08-10T01:31:41.254Z,24.7
2018-08-10T01:32:31.593Z,24.7
2018-08-10T01:33:21.123Z,24.7
2018-08-10T01:34:11.438Z,24.7
2018-08-10T01:35:02.173Z,24.7
2018-08-10T01:35:51.579Z,24.7
2018-08-10T01:36:41.626Z,24.7
2018-08-10T01:37:31.626Z,24.7
2018-08-10T01:38:22.484Z,24.7
2018-08-10T01:39:12.630Z,24.7
2018-08-10T01:40:16.447Z,24.6
2018-08-10T01:41:07.026Z,24.7
2018-08-10T01:41:42.292Z,24.7
2018-08-10T01:42:32.076Z,24.7
2018-08-10T01:43:22.031Z,24.7
2018-08-10T01:44:11.890Z,24.7
2018-08-10T01:45:02.778Z,24.7
2018-08-10T01:45:52.825Z,24.7
2018-08-10T01:46:56.180Z,24.7
2018-08-10T01:47:32.660Z,24.7
2018-08-10T01:48:22.727Z,24.7
2018-08-10T01:49:13.067Z,24.7
2018-08-10T01:50:02.892Z,24.7
2018-08-10T01:50:53.207Z,24.7
2018-08-10T01:51:43.249Z,24.7
2018-08-10T01:52:33.119Z,24.7
2018-08-10T01:53:23.677Z,24.7
2018-08-10T01:54:12.905Z,24.7
2018-08-10T01:55:03.019Z,24.7
2018-08-10T01:56:08.342Z,24.7
2018-08-10T01:56:43.654Z,24.7
2018-08-10T01:57:33.456Z,24.7
2018-08-10T01:58:23.607Z,24.7
2018-08-10T01:59:12.867Z,24.6
2018-08-10T02:00:02.952Z,24.7
2018-08-10T02:00:52.872Z,24.7
2018-08-10T02:01:43.567Z,24.7
2018-08-10T02:02:33.612Z,24.7
2018-08-10T02:03:23.124Z,24.7
2018-08-10T02:04:13.753Z,24.7
2018-08-10T02:05:04.150Z,24.7
2018-08-10T02:05:54.476Z,24.7
2018-08-10T02:06:44.759Z,24.7
2018-08-10T02:07:34.032Z,24.7
2018-08-10T02:08:23.784Z,24.7
2018-08-10T02:09:14.129Z,24.7
2018-08-10T02:10:04.465Z,24.7
2018-08-10T02:10:54.847Z,24.7
2018-08-10T02:11:44.891Z,24.7
2018-08-10T02:12:34.516Z,24.7
2018-08-10T02:13:24.434Z,24.7
2018-08-10T02:14:29.761Z,24.7
2018-08-10T02:15:05.377Z,24.6
2018-08-10T02:15:55.295Z,24.7
2018-08-10T02:16:44.995Z,24.7
2018-08-10T02:17:34.769Z,24.7
2018-08-10T02:18:25.364Z,24.7
2018-08-10T02:19:15.560Z,24.7
2018-08-10T02:20:05.481Z,24.7
2018-08-10T02:20:55.344Z,24.6
2018-08-10T02:21:45.606Z,24.7
2018-08-10T02:22:35.461Z,24.7
2018-08-10T02:23:25.756Z,24.6
2018-08-10T02:24:15.535Z,24.7
2018-08-10T02:25:20.335Z,24.7
2018-08-10T02:25:55.730Z,24.6
2018-08-10T02:26:45.998Z,24.7
2018-08-10T02:27:35.333Z,24.6
2018-08-10T02:28:25.901Z,24.7
2018-08-10T02:29:15.712Z,24.7
2018-08-10T02:30:06.573Z,24.7
2018-08-10T02:30:55.779Z,24.6
2018-08-10T02:31:46.476Z,24.7
2018-08-10T02:32:36.238Z,24.6
2018-08-10T02:33:26.240Z,24.6
2018-08-10T02:34:15.743Z,24.6
2018-08-10T02:35:05.880Z,24.6
2018-08-10T02:35:56.579Z,24.7
2018-08-10T02:36:45.947Z,24.6
2018-08-10T02:37:36.350Z,24.6
2018-08-10T02:38:26.708Z,24.6
2018-08-10T02:39:16.564Z,24.7
2018-08-10T02:40:06.590Z,24.7
2018-08-10T02:40:55.756Z,24.6
2018-08-10T02:41:46.225Z,24.7
2018-08-10T02:42:37.100Z,24.7
2018-08-10T02:43:26.323Z,24.6
2018-08-10T02:44:16.385Z,24.6
2018-08-10T02:45:07.168Z,24.6
2018-08-10T02:45:56.662Z,24.7
2018-08-10T02:46:46.723Z,24.7
2018-08-10T02:47:37.181Z,24.7
2018-08-10T02:48:26.425Z,24.7
2018-08-10T02:49:17.348Z,24.6
2018-08-10T02:50:21.595Z,24.7
2018-08-10T02:50:56.609Z,24.7
2018-08-10T02:51:46.507Z,24.6
2018-08-10T02:52:37.040Z,24.6
2018-08-10T02:53:27.224Z,24.7
2018-08-10T02:54:17.121Z,24.7
2018-08-10T02:55:07.799Z,24.6
2018-08-10T02:55:58.077Z,24.7
2018-08-10T02:56:47.904Z,24.7
2018-08-10T02:57:38.412Z,24.7
2018-08-10T02:58:28.674Z,24.6
2018-08-10T02:59:18.526Z,24.6
2018-08-10T03:00:07.541Z,24.6
2018-08-10T03:00:57.567Z,24.6
2018-08-10T03:01:48.001Z,24.6
2018-08-10T03:02:37.778Z,24.6
2018-08-10T03:03:28.641Z,24.7
2018-08-10T03:04:18.384Z,24.6
2018-08-10T03:05:07.887Z,24.7
2018-08-10T03:05:57.983Z,24.6
2018-08-10T03:06:48.908Z,24.7
2018-08-10T03:07:39.208Z,24.6
2018-08-10T03:08:28.696Z,24.6
2018-08-10T03:09:18.805Z,24.6
2018-08-10T03:10:09.300Z,24.6
2018-08-10T03:10:59.189Z,24.6
2018-08-10T03:12:03.475Z,24.6
2018-08-10T03:12:39.590Z,24.6
2018-08-10T03:13:28.882Z,24.6
2018-08-10T03:14:33.531Z,24.6
2018-08-10T03:15:09.804Z,24.6
2018-08-10T03:16:14.595Z,24.7
2018-08-10T03:16:49.614Z,24.6
2018-08-10T03:17:39.485Z,24.6
2018-08-10T03:18:28.979Z,24.7
2018-08-10T03:19:20.165Z,24.6
2018-08-10T03:20:10.198Z,24.6
2018-08-10T03:20:59.734Z,24.6
2018-08-10T03:21:50.467Z,24.6
2018-08-10T03:22:40.212Z,24.6
2018-08-10T03:23:30.203Z,24.6
2018-08-10T03:24:20.240Z,24.6
2018-08-10T03:25:10.454Z,24.6
2018-08-10T03:26:00.319Z,24.6
2018-08-10T03:26:49.196Z,24.6
2018-08-10T03:27:40.066Z,24.6
2018-08-10T03:28:29.958Z,24.6
2018-08-10T03:29:20.161Z,24.6
2018-08-10T03:30:10.959Z,24.6
2018-08-10T03:30:59.976Z,24.6
2018-08-10T03:31:50.148Z,24.6
2018-08-10T03:32:40.612Z,24.6
2018-08-10T03:33:31.166Z,24.6
2018-08-10T03:34:20.678Z,24.6
2018-08-10T03:35:10.809Z,24.6
2018-08-10T03:36:01.347Z,24.6
2018-08-10T03:36:51.457Z,24.6
2018-08-10T03:37:41.139Z,24.6
2018-08-10T03:38:31.586Z,24.6
2018-08-10T03:39:20.607Z,24.6
2018-08-10T03:40:11.190Z,24.6
2018-08-10T03:41:00.773Z,24.6
2018-08-10T03:41:50.579Z,24.6
2018-08-10T03:42:41.133Z,24.6
2018-08-10T03:43:31.689Z,24.6
2018-08-10T03:44:21.420Z,24.6
2018-08-10T03:45:11.537Z,24.6
2018-08-10T03:46:01.919Z,24.6
2018-08-10T03:46:52.370Z,24.6
2018-08-10T03:47:41.862Z,24.6
2018-08-10T03:48:31.514Z,24.6
2018-08-10T03:49:21.307Z,24.6
2018-08-10T03:50:11.515Z,24.6
2018-08-10T03:51:01.522Z,24.6
2018-08-10T03:51:51.871Z,24.6
2018-08-10T03:52:56.585Z,24.6
2018-08-10T03:53:47.441Z,24.6
2018-08-10T03:54:22.588Z,24.6
2018-08-10T03:55:12.729Z,24.6
2018-08-10T03:56:02.913Z,24.6
2018-08-10T03:56:52.406Z,24.6
2018-08-10T03:57:42.312Z,24.6
2018-08-10T03:58:31.833Z,24.6
2018-08-10T03:59:22.125Z,24.6
2018-08-10T04:00:12.908Z,24.6
2018-08-10T04:01:02.816Z,24.6
2018-08-10T04:01:52.672Z,24.6
2018-08-10T04:02:42.446Z,24.6
2018-08-10T04:03:32.210Z,24.6
2018-08-10T04:04:23.020Z,24.6
2018-08-10T04:05:13.068Z,24.6
2018-08-10T04:06:03.737Z,24.6
2018-08-10T04:06:53.275Z,24.6
2018-08-10T04:07:43.844Z,24.6
2018-08-10T04:08:32.791Z,24.6
2018-08-10T04:09:23.703Z,24.6
2018-08-10T04:10:13.279Z,24.6
2018-08-10T04:11:03.002Z,24.6
2018-08-10T04:11:53.632Z,24.6
2018-08-10T04:12:43.523Z,24.6
2018-08-10T04:13:48.423Z,24.6
2018-08-10T04:14:23.771Z,24.6
2018-08-10T04:15:13.999Z,24.6
2018-08-10T04:16:03.912Z,24.6
2018-08-10T04:16:54.225Z,24.6
2018-08-10T04:17:44.382Z,24.5
2018-08-10T04:18:34.129Z,24.5
2018-08-10T04:19:24.505Z,24.5
2018-08-10T04:20:13.716Z,24.5
2018-08-10T04:21:04.660Z,24.5
2018-08-10T04:21:54.057Z,24.5
2018-08-10T04:22:44.581Z,24.5
2018-08-10T04:23:34.525Z,24.5
2018-08-10T04:24:24.046Z,24.5
2018-08-10T04:25:14.434Z,24.4
2018-08-10T04:26:04.776Z,24.4
2018-08-10T04:26:54.798Z,24.5
2018-08-10T04:27:45.337Z,24.4
2018-08-10T04:28:34.676Z,24.4
2018-08-10T04:29:25.086Z,24.4
2018-08-10T04:30:14.410Z,24.4
2018-08-10T05:07:00.249Z,24
2018-08-10T05:07:49.732Z,24
2018-08-10T05:08:40.649Z,24
2018-08-10T05:09:30.996Z,23.9
2018-08-10T05:10:20.449Z,23.9
2018-08-10T05:11:09.735Z,23.9
2018-08-10T05:12:01.197Z,23.9
2018-08-10T05:12:51.005Z,23.9
2018-08-10T05:13:40.441Z,23.9
2018-08-10T05:14:30.793Z,23.9
2018-08-10T05:15:20.567Z,23.8
2018-08-10T05:16:11.204Z,23.8
2018-08-10T05:17:00.410Z,23.8
2018-08-10T05:17:49.914Z,23.8
2018-08-10T05:18:41.716Z,23.8
2018-08-10T05:19:31.468Z,23.8
2018-08-10T05:20:21.547Z,23.8
2018-08-10T05:21:11.574Z,23.8
2018-08-10T05:22:01.402Z,23.8
2018-08-10T05:22:51.432Z,23.8
2018-08-10T05:23:41.494Z,23.8
2018-08-10T05:24:31.348Z,23.8
2018-08-10T05:25:21.323Z,23.8
2018-08-10T05:26:11.752Z,23.8
2018-08-10T05:27:01.211Z,23.8
2018-08-10T05:27:52.418Z,23.8
2018-08-10T05:28:42.168Z,23.8
2018-08-10T05:29:31.950Z,23.7
2018-08-10T05:30:22.338Z,23.8
2018-08-10T05:31:12.099Z,23.8
2018-08-10T05:32:02.468Z,23.8
2018-08-10T05:32:52.505Z,23.7
2018-08-10T05:33:42.559Z,23.8
2018-08-10T05:34:31.471Z,23.8
2018-08-10T05:35:22.365Z,23.7
2018-08-10T05:36:12.029Z,23.8
2018-08-10T05:37:02.244Z,23.7
2018-08-10T05:37:52.913Z,23.8
2018-08-10T05:38:42.943Z,23.8
2018-08-10T05:39:31.871Z,23.8
2018-08-10T05:40:21.925Z,23.8
2018-08-10T05:41:12.858Z,23.8
2018-08-10T05:42:03.186Z,23.8
2018-08-10T05:42:52.711Z,23.8
2018-08-10T05:43:42.220Z,23.8
2018-08-10T05:44:33.116Z,23.8
2018-08-10T05:45:21.719Z,23.8
2018-08-10T05:46:13.424Z,23.8
2018-08-10T05:47:05.008Z,23.8
2018-08-10T05:47:52.457Z,23.8
2018-08-10T05:48:43.738Z,23.8
2018-08-10T05:49:33.196Z,23.8
2018-08-10T05:50:23.616Z,23.8
2018-08-10T05:51:13.711Z,23.8
2018-08-10T05:52:04.074Z,23.8
2018-08-10T05:52:54.419Z,23.8
2018-08-10T05:53:43.576Z,23.8
2018-08-10T05:54:34.458Z,23.8
2018-08-10T05:55:24.034Z,23.8
2018-08-10T05:56:14.304Z,23.8
2018-08-10T05:57:04.129Z,23.8
2018-08-10T05:57:53.589Z,23.8
2018-08-10T05:58:43.982Z,23.8
2018-08-10T05:59:33.427Z,23.8
2018-08-10T06:00:24.934Z,23.8
2018-08-10T06:01:14.715Z,23.8
2018-08-10T06:02:05.069Z,23.8
2018-08-10T06:02:55.136Z,23.8
2018-08-10T06:03:46.744Z,23.9
2018-08-10T06:04:34.990Z,23.8
2018-08-10T06:05:24.752Z,23.8
2018-08-10T06:06:15.101Z,23.8
2018-08-10T06:07:05.116Z,23.9
2018-08-10T06:07:54.939Z,23.9
2018-08-10T06:08:44.736Z,23.9
2018-08-10T06:09:35.608Z,23.9
2018-08-10T06:10:25.700Z,23.9
2018-08-10T06:11:14.889Z,23.9
2018-08-10T06:12:05.799Z,23.9
2018-08-10T06:12:55.603Z,23.9
2018-08-10T06:13:45.915Z,23.9
2018-08-10T06:14:35.699Z,23.9
2018-08-10T06:15:26.397Z,23.9
2018-08-10T06:16:14.999Z,23.9
2018-08-10T06:17:05.069Z,23.9
2018-08-10T06:17:55.707Z,23.9
2018-08-10T06:18:45.744Z,23.9
2018-08-10T06:19:38.264Z,23.9
2018-08-10T06:20:25.865Z,23.9
2018-08-10T06:21:15.392Z,23.9
2018-08-10T06:22:05.786Z,23.9
2018-08-10T06:22:56.870Z,23.9
2018-08-10T06:23:45.629Z,23.9
2018-08-10T06:24:35.667Z,23.9
2018-08-10T06:25:26.077Z,23.9
2018-08-10T06:26:16.939Z,23.9
2018-08-10T06:27:06.411Z,23.9
2018-08-10T06:27:58.604Z,23.9
2018-08-10T06:28:46.123Z,23.9
2018-08-10T06:29:37.189Z,23.9
2018-08-10T06:30:25.736Z,23.9
2018-08-10T06:31:15.948Z,23.9
2018-08-10T06:32:05.961Z,23.9
2018-08-10T06:32:57.191Z,23.9
2018-08-10T06:33:48.655Z,23.9
2018-08-10T06:34:37.332Z,24
2018-08-10T06:35:27.339Z,23.9
2018-08-10T06:36:17.406Z,24
2018-08-10T06:37:07.758Z,24
2018-08-10T06:37:57.245Z,24
2018-08-10T06:38:47.888Z,24
2018-08-10T06:39:37.095Z,24
2018-08-10T06:40:27.748Z,24
2018-08-10T06:41:16.933Z,24
2018-08-10T06:42:07.339Z,24
2018-08-10T06:42:57.943Z,24
2018-08-10T06:43:48.274Z,24
2018-08-10T06:44:38.386Z,24.1
2018-08-10T06:45:27.646Z,24.1
2018-08-10T06:46:16.733Z,24.1
2018-08-10T06:47:07.948Z,24.1
2018-08-10T06:47:58.062Z,24.1
2018-08-10T06:48:48.443Z,24.1
2018-08-10T06:49:37.885Z,24.1
2018-08-10T06:50:28.816Z,24.1
2018-08-10T06:51:20.256Z,24.1
2018-08-10T06:52:08.933Z,24.1
2018-08-10T06:52:57.851Z,24.1
2018-08-10T06:53:49.081Z,24.1
2018-08-10T06:54:38.776Z,24.1
2018-08-10T06:55:28.620Z,24.1
2018-08-10T06:56:20.025Z,24.1
2018-08-10T06:57:09.027Z,24.1
2018-08-10T06:57:58.499Z,24.1
2018-08-10T06:58:48.090Z,24.1
2018-08-10T06:59:38.724Z,24.1
2018-08-10T07:00:29.711Z,24.1
2018-08-10T07:01:19.348Z,24.2
2018-08-10T07:02:09.660Z,24.2
2018-08-10T07:02:59.499Z,24.2
2018-08-10T07:03:49.571Z,24.2
2018-08-10T07:04:38.773Z,24.2
2018-08-10T07:05:30.065Z,24.2
2018-08-10T07:06:19.497Z,24.2
2018-08-10T07:07:09.563Z,24.3
2018-08-10T07:08:00.429Z,24.2
2018-08-10T07:08:49.713Z,24.3
2018-08-10T07:09:40.296Z,24.3
2018-08-10T07:10:29.793Z,24.3
2018-08-10T07:11:20.285Z,24.3
2018-08-10T07:12:09.616Z,24.3
2018-08-10T07:12:59.890Z,24.3
2018-08-10T07:13:49.930Z,24.3
2018-08-10T07:14:40.769Z,24.3
2018-08-10T07:15:29.613Z,24.3
2018-08-10T07:16:20.573Z,24.3
2018-08-10T07:17:09.813Z,24.3
2018-08-10T07:17:59.796Z,24.3
2018-08-10T07:18:50.515Z,24.3
2018-08-10T07:19:39.960Z,24.3
2018-08-10T07:20:30.307Z,24.3
2018-08-10T07:21:20.348Z,24.4
2018-08-10T07:22:10.727Z,24.3
2018-08-10T07:23:01.037Z,24.4
2018-08-10T07:23:51.192Z,24.4
2018-08-10T07:24:40.622Z,24.4
2018-08-10T07:25:30.936Z,24.4
2018-08-10T07:26:21.588Z,24.4
2018-08-10T07:27:12.445Z,24.4
2018-08-10T07:28:01.237Z,24.4
2018-08-10T07:28:51.517Z,24.4
2018-08-10T07:29:41.787Z,24.4
2018-08-10T07:30:31.899Z,24.4
2018-08-10T07:31:21.651Z,24.4
2018-08-10T07:32:11.706Z,24.4
2018-08-10T07:33:01.585Z,24.4
2018-08-10T07:33:51.854Z,24.5
2018-08-10T07:34:42.249Z,24.5
2018-08-10T07:35:32.249Z,24.5
2018-08-10T07:36:22.098Z,24.5
2018-08-10T07:37:12.097Z,24.5
2018-08-10T07:38:02.187Z,24.5
2018-08-10T07:38:51.731Z,24.5
2018-08-10T07:39:41.490Z,24.5
2018-08-10T07:40:32.153Z,24.5
2018-08-10T07:41:22.500Z,24.6
2018-08-10T07:42:11.132Z,24.5
2018-08-10T07:43:02.646Z,24.6
2018-08-10T07:43:52.944Z,24.6
2018-08-10T07:44:42.269Z,24.6
2018-08-10T07:45:32.344Z,24.6
2018-08-10T07:46:23.168Z,24.6
2018-08-10T07:47:12.972Z,24.6
2018-08-10T07:48:03.023Z,24.6
2018-08-10T07:48:52.795Z,24.6
2018-08-10T07:49:43.144Z,24.6
2018-08-10T07:50:32.964Z,24.6
2018-08-10T07:51:23.002Z,24.6
2018-08-10T07:52:13.949Z,24.6
2018-08-10T07:53:02.188Z,24.6
2018-08-10T07:53:53.736Z,24.6
2018-08-10T07:54:43.246Z,24.7
2018-08-10T07:55:33.080Z,24.7
2018-08-10T07:56:22.854Z,24.7
2018-08-10T07:57:12.919Z,24.7
2018-08-10T07:58:03.459Z,24.7
2018-08-10T07:58:53.928Z,24.7
2018-08-10T07:59:43.316Z,24.7
2018-08-10T08:00:33.923Z,24.7
2018-08-10T08:01:24.368Z,24.8
2018-08-10T08:02:13.219Z,24.7
2018-08-10T08:03:03.655Z,24.8
2018-08-10T08:03:54.233Z,24.8
2018-08-10T08:04:43.703Z,24.8
2018-08-10T08:05:34.107Z,24.8
2018-08-10T08:06:24.252Z,24.8
2018-08-10T08:07:19.153Z,24.8
2018-08-10T08:08:05.029Z,24.8
2018-08-10T08:08:54.290Z,24.8
2018-08-10T08:09:44.457Z,24.8
2018-08-10T08:10:35.231Z,24.8
2018-08-10T08:11:24.475Z,24.8
2018-08-10T08:12:14.834Z,24.8
2018-08-10T08:13:04.795Z,24.8
2018-08-10T08:13:55.776Z,24.8
2018-08-10T08:14:43.977Z,24.8
2018-08-10T08:15:34.287Z,24.8
2018-08-10T08:16:24.656Z,24.9
2018-08-10T08:17:14.805Z,24.9
2018-08-10T08:18:05.445Z,24.9
2018-08-10T08:18:54.848Z,24.9
2018-08-10T08:19:45.985Z,24.9
2018-08-10T08:20:35.269Z,24.9
2018-08-10T08:21:25.053Z,24.9
2018-08-10T08:22:15.730Z,24.9
2018-08-10T08:23:05.482Z,24.9
2018-08-10T08:23:55.317Z,24.9
2018-08-10T08:24:45.546Z,24.9
2018-08-10T08:25:34.885Z,24.9
2018-08-10T08:26:26.326Z,24.9
2018-08-10T08:27:17.138Z,24.9
2018-08-10T08:28:05.882Z,24.9
2018-08-10T08:28:55.903Z,24.9
2018-08-10T08:29:45.985Z,24.9
2018-08-10T08:30:36.338Z,25
2018-08-10T08:31:25.862Z,25
2018-08-10T08:32:15.673Z,25
2018-08-10T08:33:06.472Z,25
2018-08-10T08:33:56.310Z,25.1
2018-08-10T08:34:47.865Z,25
2018-08-10T08:35:34.943Z,25.1
2018-08-10T08:36:26.784Z,25.1
2018-08-10T08:37:16.359Z,25.1
2018-08-10T08:38:06.935Z,25.1
2018-08-10T08:38:56.643Z,25.1
2018-08-10T08:39:46.785Z,25.1
2018-08-10T08:40:36.828Z,25.1
2018-08-10T08:41:26.003Z,25.1
2018-08-10T08:42:16.911Z,25.1
2018-08-10T08:43:07.342Z,25.1
2018-08-10T08:43:57.060Z,25.1
2018-08-10T08:44:46.400Z,25.1
2018-08-10T08:45:38.605Z,25.1
2018-08-10T08:46:31.119Z,25.2
2018-08-10T08:47:17.593Z,25.1
2018-08-10T08:48:07.663Z,25.1
2018-08-10T08:48:56.904Z,25.1
2018-08-10T08:49:46.742Z,25.1
2018-08-10T08:50:36.722Z,25.1
2018-08-10T08:51:28.248Z,25.1
2018-08-10T08:52:18.315Z,25.1
2018-08-10T08:53:07.499Z,25.2
2018-08-10T08:53:58.868Z,25.1
2018-08-10T08:54:48.601Z,25.1
2018-08-10T08:55:38.573Z,25.2
2018-08-10T08:56:27.764Z,25.2
2018-08-10T08:57:19.465Z,25.1
2018-08-10T08:58:08.468Z,25.1
2018-08-10T08:58:58.229Z,25.2
2018-08-10T08:59:48.574Z,25.2
2018-08-10T09:00:38.657Z,25.1
2018-08-10T09:01:28.467Z,25.1
2018-08-10T09:02:18.183Z,25.1
2018-08-10T09:03:07.994Z,25.2
2018-08-10T09:03:58.043Z,25.2
2018-08-10T09:21:15.473Z,25.2
2018-08-10T09:22:06.034Z,25.2
2018-08-10T09:22:55.592Z,25.2
2018-08-10T09:23:45.881Z,25.2
2018-08-10T09:24:35.931Z,25.2
2018-08-10T09:25:25.773Z,25.2
2018-08-10T09:26:15.906Z,25.2
2018-08-10T09:27:07.484Z,25.2
2018-08-10T09:27:56.524Z,25.2
2018-08-10T09:28:46.506Z,25.2
2018-08-10T09:29:36.854Z,25.2
2018-08-10T09:30:26.386Z,25.2
2018-08-10T09:31:15.993Z,25.2
2018-08-10T09:32:06.814Z,25.2
2018-08-10T09:32:56.483Z,25.2
2018-08-10T09:33:46.743Z,25.2
2018-08-10T09:34:37.327Z,25.2
2018-08-10T09:35:26.475Z,25.1
2018-08-10T09:36:16.868Z,25.2
2018-08-10T09:37:07.175Z,25.2
2018-08-10T09:37:57.287Z,25.2
2018-08-10T09:38:47.449Z,25.2
2018-08-10T09:39:36.518Z,25.1
2018-08-10T09:40:27.167Z,25.1
2018-08-10T09:41:16.928Z,25.1
2018-08-10T09:42:08.171Z,25.2
2018-08-10T09:42:57.503Z,25.2
2018-08-10T09:43:53.244Z,25.2
2018-08-10T09:44:36.100Z,25.2
2018-08-10T09:45:27.740Z,25.2
2018-08-10T09:46:17.900Z,25.2
2018-08-10T09:47:07.421Z,25.2
2018-08-10T09:47:57.822Z,25.2
2018-08-10T09:48:47.816Z,25.2
2018-08-10T09:49:38.240Z,25.2
2018-08-10T09:50:28.071Z,25.2
2018-08-10T09:51:18.283Z,25.2
2018-08-10T09:52:07.351Z,25.2
2018-08-10T09:52:58.692Z,25.2
2018-08-10T09:53:48.462Z,25.2
2018-08-10T09:54:38.025Z,25.2
2018-08-10T09:55:28.336Z,25.3
2018-08-10T09:56:18.085Z,25.3
2018-08-10T09:57:08.464Z,25.3
2018-08-10T09:57:59.095Z,25.3
2018-08-10T09:58:48.095Z,25.3
2018-08-10T09:59:38.612Z,25.3
2018-08-10T10:00:29.034Z,25.3
2018-08-10T10:01:18.542Z,25.3
2018-08-10T10:02:08.905Z,25.3
2018-08-10T10:02:59.206Z,25.3
2018-08-10T10:03:49.575Z,25.3
2018-08-10T10:04:38.514Z,25.3
2018-08-10T10:05:29.462Z,25.3
2018-08-10T10:06:18.697Z,25.3
2018-08-10T10:07:09.548Z,25.3
2018-08-10T10:07:59.307Z,25.3
2018-08-10T10:08:49.693Z,25.3
2018-08-10T10:09:39.893Z,25.3
2018-08-10T10:10:29.534Z,25.3
2018-08-10T10:11:20.098Z,25.3
2018-08-10T10:12:09.953Z,25.3
2018-08-10T10:12:59.703Z,25.3
2018-08-10T10:13:50.324Z,25.3
2018-08-10T10:14:39.968Z,25.3
2018-08-10T10:15:29.460Z,25.2
2018-08-10T10:16:20.389Z,25.3
2018-08-10T10:17:10.185Z,25.3
2018-08-10T10:18:00.502Z,25.2
2018-08-10T10:18:50.312Z,25.2
2018-08-10T10:19:39.180Z,25.3
2018-08-10T10:20:30.063Z,25.3
2018-08-10T10:21:21.131Z,25.3
2018-08-10T10:22:10.860Z,25.3
2018-08-10T10:23:01.317Z,25.2
2018-08-10T10:23:50.384Z,25.2
2018-08-10T10:24:40.424Z,25.2
2018-08-10T10:25:30.805Z,25.2
2018-08-10T10:26:20.894Z,25.2
2018-08-10T10:27:11.217Z,25.2
2018-08-10T10:28:00.584Z,25.3
2018-08-10T10:28:50.779Z,25.2
2018-08-10T10:29:41.130Z,25.2
2018-08-10T10:30:31.523Z,25.2
2018-08-10T10:31:21.566Z,25.2
2018-08-10T10:32:11.026Z,25.2
2018-08-10T10:33:01.536Z,25.2
2018-08-10T10:33:51.457Z,25.2
2018-08-10T10:34:42.157Z,25.2
2018-08-10T10:35:31.778Z,25.2
2018-08-10T10:36:22.105Z,25.2
2018-08-10T10:37:11.625Z,25.2
2018-08-10T10:38:01.710Z,25.2
2018-08-10T10:38:50.661Z,25.2
2018-08-10T10:39:42.382Z,25.2
2018-08-10T10:40:31.873Z,25.2
2018-08-10T10:41:22.663Z,25.2
2018-08-10T10:42:12.081Z,25.2
2018-08-10T10:43:02.377Z,25.2
2018-08-10T10:43:51.914Z,25.2
2018-08-10T10:44:41.754Z,25.2
2018-08-10T10:45:32.562Z,25.2
2018-08-10T10:46:22.899Z,25.1
2018-08-10T10:47:13.085Z,25.2
2018-08-10T10:48:02.189Z,25.2
2018-08-10T10:48:54.451Z,25.2
2018-08-10T10:49:41.823Z,25.1
2018-08-10T10:50:32.660Z,25.2
2018-08-10T10:51:22.733Z,25.1
2018-08-10T10:52:13.081Z,25.1
2018-08-10T10:53:02.883Z,25.2
2018-08-10T10:53:53.150Z,25.1
2018-08-10T10:54:42.449Z,25.1
2018-08-10T10:55:33.942Z,25.1
2018-08-10T10:56:23.337Z,25.1
2018-08-10T10:57:13.168Z,25.1
2018-08-10T10:58:03.511Z,25.1
2018-08-10T10:58:53.065Z,25.1
2018-08-10T10:59:43.353Z,25.1
2018-08-10T11:00:33.149Z,25.1
2018-08-10T11:01:24.042Z,25.1
2018-08-10T11:02:13.798Z,25.1
2018-08-10T11:03:04.164Z,25.1
2018-08-10T11:03:53.657Z,25.1
2018-08-10T11:04:43.971Z,25.1
2018-08-10T11:05:33.595Z,25.1
2018-08-10T11:06:25.598Z,25.1
2018-08-10T11:07:14.218Z,25.1
2018-08-10T11:08:04.008Z,25.1
2018-08-10T11:08:54.288Z,25.1
2018-08-10T11:09:44.093Z,25.1
2018-08-10T11:10:34.446Z,25.1
2018-08-10T11:11:24.491Z,25.1
2018-08-10T11:12:14.571Z,25.1
2018-08-10T11:13:04.429Z,25.1
2018-08-10T11:13:54.429Z,25.1
2018-08-10T11:14:44.233Z,25.1
2018-08-10T11:15:34.599Z,25.1
2018-08-10T11:16:24.618Z,25.1
2018-08-10T11:17:14.981Z,25.1
2018-08-10T11:18:06.378Z,25.1
2018-08-10T11:18:55.180Z,25.1
2018-08-10T11:19:44.671Z,25.1
2018-08-10T11:20:35.327Z,25.1
2018-08-10T11:21:24.815Z,25.1
2018-08-10T11:22:15.176Z,25.1
2018-08-10T11:23:04.959Z,25.1
2018-08-10T11:23:55.851Z,25.1
2018-08-10T11:24:45.643Z,25.1
2018-08-10T11:25:36.127Z,25.1
2018-08-10T11:26:25.804Z,25.1
2018-08-10T11:27:15.019Z,25.1
2018-08-10T11:28:06.227Z,25.1
2018-08-10T11:28:55.688Z,25.1
2018-08-10T11:29:45.749Z,25.1
2018-08-10T11:30:36.104Z,25.1
2018-08-10T11:31:25.622Z,25.1
2018-08-10T11:32:15.768Z,25.1
2018-08-10T11:33:06.628Z,25.1
2018-08-10T11:33:56.075Z,25.1
2018-08-10T11:34:46.132Z,25.1
2018-08-10T11:35:35.922Z,25.1
2018-08-10T11:36:26.323Z,25.1
2018-08-10T11:37:16.317Z,25.1
2018-08-10T11:38:06.115Z,25.1
2018-08-10T11:38:56.751Z,25.1
2018-08-10T11:39:46.301Z,25.1
2018-08-10T11:40:36.445Z,25.1
2018-08-10T11:41:26.900Z,25.1
2018-08-10T11:42:17.079Z,25.1
2018-08-10T11:43:07.063Z,25.1
2018-08-10T11:43:56.840Z,25.1
2018-08-10T11:44:47.355Z,25.1
2018-08-10T11:45:36.726Z,25.1
2018-08-10T11:46:27.545Z,25.1
2018-08-10T11:47:16.814Z,25.1
2018-08-10T11:48:07.425Z,25.1
2018-08-10T11:48:57.558Z,25.1
2018-08-10T11:49:47.032Z,25.1
2018-08-10T11:50:36.803Z,25.1
2018-08-10T11:51:27.689Z,25.1
2018-08-10T11:52:17.741Z,25.1
2018-08-10T11:53:07.550Z,25
2018-08-10T11:53:57.903Z,25
2018-08-10T11:54:47.670Z,25.1
2018-08-10T11:55:37.819Z,25.1
2018-08-10T11:56:27.931Z,25.1
2018-08-10T11:57:17.861Z,25.1
2018-08-10T11:58:07.738Z,25.1
2018-08-10T11:58:58.582Z,25.1
2018-08-10T11:59:47.815Z,25.1
2018-08-10T12:00:37.917Z,25.1
2018-08-10T12:01:28.205Z,25.1
2018-08-10T12:02:17.997Z,25.1
2018-08-10T12:03:09.030Z,25
2018-08-10T12:03:58.152Z,25
2018-08-10T12:04:48.465Z,25
2018-08-10T12:05:38.551Z,25.1
2018-08-10T12:06:28.609Z,25
2018-08-10T12:07:18.705Z,25.1
2018-08-10T12:08:08.751Z,25
2018-08-10T12:08:59.362Z,25
2018-08-10T12:09:49.107Z,25
2018-08-10T12:10:39.501Z,25.1
2018-08-10T12:11:28.149Z,25
2018-08-10T12:12:19.004Z,25.1
2018-08-10T12:13:09.115Z,25.1
2018-08-10T12:13:59.420Z,25
2018-08-10T12:14:49.236Z,25.1
2018-08-10T12:15:39.831Z,25
2018-08-10T12:16:29.640Z,25
2018-08-10T12:17:19.147Z,25
2018-08-10T12:18:09.244Z,25